Aviation Digital Data Service (ADDS)

Output produced by METARs form (2146 UTC 19 April 2021)
found at http://aviationweather.gov/metar/data/
 
TAF EPDA 192000Z 1921/2006 03008KT CAVOK 
     TEMPO 2002/2006 VRB02KT 5000 MIFG BR 
     PROB30 
     TEMPO 2002/2006 0600 FG BKN002